sensor_id;sensor_type;location;lat;lon;timestamp;pressure;altitude;pressure_sealevel;temperature;humidity
40692;BME280;26377;53.344;14.886;2022-10-16T00:01:44;100889.37;;;14.76;76.03
40692;BME280;26377;53.344;14.886;2022-10-16T00:04:13;100897.28;;;14.77;76.03
40692;BME280;26377;53.344;14.886;2022-10-16T00:06:43;100896.72;;;14.79;76.02
40692;BME280;26377;53.344;14.886;2022-10-16T00:09:12;100899.39;;;14.79;76.00
40692;BME280;26377;53.344;14.886;2022-10-16T00:11:41;100888.70;;;14.79;75.97
40692;BME280;26377;53.344;14.886;2022-10-16T00:14:14;100903.40;;;14.79;75.93
40692;BME280;26377;53.344;14.886;2022-10-16T00:16:42;100902.06;;;14.79;75.93
40692;BME280;26377;53.344;14.886;2022-10-16T00:19:13;100905.94;;;14.81;75.98
40692;BME280;26377;53.344;14.886;2022-10-16T00:21:44;100897.56;;;14.80;75.98
40692;BME280;26377;53.344;14.886;2022-10-16T00:24:13;100901.66;;;14.78;75.94
40692;BME280;26377;53.344;14.886;2022-10-16T00:26:40;100902.16;;;14.78;75.95
40692;BME280;26377;53.344;14.886;2022-10-16T00:29:10;100903.00;;;14.78;75.92
40692;BME280;26377;53.344;14.886;2022-10-16T00:31:39;100900.82;;;14.78;75.91
40692;BME280;26377;53.344;14.886;2022-10-16T00:34:07;100910.17;;;14.78;75.92
40692;BME280;26377;53.344;14.886;2022-10-16T00:36:34;100903.09;;;14.77;75.91
40692;BME280;26377;53.344;14.886;2022-10-16T00:39:01;100901.75;;;14.77;75.91
40692;BME280;26377;53.344;14.886;2022-10-16T00:41:32;100912.94;;;14.76;75.88
40692;BME280;26377;53.344;14.886;2022-10-16T00:44:03;100909.90;;;14.75;75.92
40692;BME280;26377;53.344;14.886;2022-10-16T00:46:39;100915.23;;;14.75;75.97
40692;BME280;26377;53.344;14.886;2022-10-16T00:49:15;100910.64;;;14.77;76.02
40692;BME280;26377;53.344;14.886;2022-10-16T00:51:46;100914.17;;;14.78;76.06
40692;BME280;26377;53.344;14.886;2022-10-16T00:54:21;100917.59;;;14.80;76.10
40692;BME280;26377;53.344;14.886;2022-10-16T00:56:55;100921.13;;;14.80;76.15
40692;BME280;26377;53.344;14.886;2022-10-16T00:59:27;100916.52;;;14.82;76.21
40692;BME280;26377;53.344;14.886;2022-10-16T01:01:57;100917.17;;;14.86;76.23
40692;BME280;26377;53.344;14.886;2022-10-16T01:04:26;100917.07;;;14.87;76.26
40692;BME280;26377;53.344;14.886;2022-10-16T01:15:52;100927.51;;;14.97;76.41
40692;BME280;26377;53.344;14.886;2022-10-16T01:18:36;100934.19;;;14.97;76.41
40692;BME280;26377;53.344;14.886;2022-10-16T01:21:16;100926.95;;;14.99;76.42
40692;BME280;26377;53.344;14.886;2022-10-16T01:24:11;100929.98;;;15.00;76.41
40692;BME280;26377;53.344;14.886;2022-10-16T01:30:02;100932.36;;;15.05;76.49
40692;BME280;26377;53.344;14.886;2022-10-16T01:32:50;100927.86;;;15.05;76.49
40692;BME280;26377;53.344;14.886;2022-10-16T01:35:39;100934.91;;;15.06;76.47
40692;BME280;26377;53.344;14.886;2022-10-16T01:38:18;100939.78;;;15.07;76.47
40692;BME280;26377;53.344;14.886;2022-10-16T01:40:51;100937.84;;;15.09;76.51
40692;BME280;26377;53.344;14.886;2022-10-16T01:43:25;100941.02;;;15.08;76.53
40692;BME280;26377;53.344;14.886;2022-10-16T01:46:02;100941.39;;;15.09;76.52
40692;BME280;26377;53.344;14.886;2022-10-16T01:48:36;100950.55;;;15.12;76.52
40692;BME280;26377;53.344;14.886;2022-10-16T01:51:11;100956.27;;;15.13;76.55
40692;BME280;26377;53.344;14.886;2022-10-16T01:53:43;100955.56;;;15.17;76.53
40692;BME280;26377;53.344;14.886;2022-10-16T01:56:18;100952.06;;;15.16;76.55
40692;BME280;26377;53.344;14.886;2022-10-16T01:59:06;100945.65;;;15.19;76.55
40692;BME280;26377;53.344;14.886;2022-10-16T02:01:31;100951.73;;;15.21;76.55
40692;BME280;26377;53.344;14.886;2022-10-16T02:04:07;100954.41;;;15.21;76.53
40692;BME280;26377;53.344;14.886;2022-10-16T02:06:41;100954.77;;;15.22;76.52
40692;BME280;26377;53.344;14.886;2022-10-16T02:09:09;100953.94;;;15.21;76.51
40692;BME280;26377;53.344;14.886;2022-10-16T02:11:38;100957.95;;;15.21;76.46
40692;BME280;26377;53.344;14.886;2022-10-16T02:14:07;100953.94;;;15.21;76.45
40692;BME280;26377;53.344;14.886;2022-10-16T02:16:43;100950.86;;;15.20;76.43
40692;BME280;26377;53.344;14.886;2022-10-16T02:19:15;100955.00;;;15.19;76.37
40692;BME280;26377;53.344;14.886;2022-10-16T02:22:00;100948.42;;;15.17;76.33
40692;BME280;26377;53.344;14.886;2022-10-16T02:24:56;100963.59;;;15.17;76.33
40692;BME280;26377;53.344;14.886;2022-10-16T02:30:48;100953.13;;;15.14;76.39
40692;BME280;26377;53.344;14.886;2022-10-16T02:32:48;100957.12;;;15.14;76.42
40692;BME280;26377;53.344;14.886;2022-10-16T02:35:21;100963.81;;;15.14;76.42
40692;BME280;26377;53.344;14.886;2022-10-16T02:37:50;100953.13;;;15.14;76.40
40692;BME280;26377;53.344;14.886;2022-10-16T02:40:20;100948.71;;;15.13;76.43
40692;BME280;26377;53.344;14.886;2022-10-16T02:42:50;100959.90;;;15.12;76.37
40692;BME280;26377;53.344;14.886;2022-10-16T02:45:19;100960.37;;;15.12;76.40
40692;BME280;26377;53.344;14.886;2022-10-16T02:47:47;100956.83;;;15.11;76.37
40692;BME280;26377;53.344;14.886;2022-10-16T02:50:16;100959.23;;;15.09;76.36
40692;BME280;26377;53.344;14.886;2022-10-16T02:52:43;100962.40;;;15.08;76.33
40692;BME280;26377;53.344;14.886;2022-10-16T02:55:11;100962.50;;;15.07;76.37
40692;BME280;26377;53.344;14.886;2022-10-16T02:57:38;100974.98;;;15.06;76.35
40692;BME280;26377;53.344;14.886;2022-10-16T03:00:09;100981.30;;;15.05;76.32
40692;BME280;26377;53.344;14.886;2022-10-16T03:02:38;100973.78;;;15.05;76.35
40692;BME280;26377;53.344;14.886;2022-10-16T03:05:08;100975.21;;;15.03;76.33
40692;BME280;26377;53.344;14.886;2022-10-16T03:07:37;100970.34;;;15.03;76.36
40692;BME280;26377;53.344;14.886;2022-10-16T03:10:08;100984.06;;;15.04;76.38
40692;BME280;26377;53.344;14.886;2022-10-16T03:12:37;100991.62;;;15.04;76.38
40692;BME280;26377;53.344;14.886;2022-10-16T03:15:07;100990.75;;;15.04;76.42
40692;BME280;26377;53.344;14.886;2022-10-16T03:17:37;100993.42;;;15.04;76.42
40692;BME280;26377;53.344;14.886;2022-10-16T03:20:07;101000.50;;;15.05;76.44
40692;BME280;26377;53.344;14.886;2022-10-16T03:22:35;100992.48;;;15.05;76.49
40692;BME280;26377;53.344;14.886;2022-10-16T03:25:06;100989.69;;;15.06;76.50
40692;BME280;26377;53.344;14.886;2022-10-16T03:27:34;100993.23;;;15.07;76.48
40692;BME280;26377;53.344;14.886;2022-10-16T03:30:01;101003.45;;;15.07;76.48
40692;BME280;26377;53.344;14.886;2022-10-16T03:32:29;101001.14;;;15.08;76.47
40692;BME280;26377;53.344;14.886;2022-10-16T03:34:58;100989.59;;;15.08;76.48
40692;BME280;26377;53.344;14.886;2022-10-16T03:37:30;100980.50;;;15.10;76.49
40692;BME280;26377;53.344;14.886;2022-10-16T03:39:57;100979.55;;;15.11;76.48
40692;BME280;26377;53.344;14.886;2022-10-16T03:42:27;100994.38;;;15.10;76.52
40692;BME280;26377;53.344;14.886;2022-10-16T03:44:56;100994.64;;;15.12;76.49
40692;BME280;26377;53.344;14.886;2022-10-16T03:47:23;101015.15;;;15.12;76.41
40692;BME280;26377;53.344;14.886;2022-10-16T03:49:52;101018.29;;;15.11;76.41
40692;BME280;26377;53.344;14.886;2022-10-16T03:52:19;101017.92;;;15.10;76.39
40692;BME280;26377;53.344;14.886;2022-10-16T03:54:48;101028.14;;;15.11;76.39
40692;BME280;26377;53.344;14.886;2022-10-16T03:57:15;101020.22;;;15.09;76.39
40692;BME280;26377;53.344;14.886;2022-10-16T03:59:44;101026.53;;;15.08;76.39
40692;BME280;26377;53.344;14.886;2022-10-16T04:02:12;101036.25;;;15.09;76.38
40692;BME280;26377;53.344;14.886;2022-10-16T04:04:41;101040.36;;;15.08;76.42
40692;BME280;26377;53.344;14.886;2022-10-16T04:07:10;101040.86;;;15.07;76.41
40692;BME280;26377;53.344;14.886;2022-10-16T04:09:39;101037.22;;;15.08;76.44
40692;BME280;26377;53.344;14.886;2022-10-16T04:12:06;101027.37;;;15.09;76.45
40692;BME280;26377;53.344;14.886;2022-10-16T04:14:34;101022.16;;;15.07;76.46
40692;BME280;26377;53.344;14.886;2022-10-16T04:17:04;101016.81;;;15.07;76.42
40692;BME280;26377;53.344;14.886;2022-10-16T04:19:31;101021.28;;;15.07;76.41
40692;BME280;26377;53.344;14.886;2022-10-16T04:21:58;101021.38;;;15.05;76.42
40692;BME280;26377;53.344;14.886;2022-10-16T04:24:25;101028.06;;;15.05;76.43
40692;BME280;26377;53.344;14.886;2022-10-16T04:26:54;101029.02;;;15.04;76.46
40692;BME280;26377;53.344;14.886;2022-10-16T04:29:22;101043.63;;;15.06;76.46
40692;BME280;26377;53.344;14.886;2022-10-16T04:31:52;101044.96;;;15.06;76.49
40692;BME280;26377;53.344;14.886;2022-10-16T04:34:24;101048.00;;;15.07;76.49
40692;BME280;26377;53.344;14.886;2022-10-16T04:36:53;101049.80;;;15.06;76.49
40692;BME280;26377;53.344;14.886;2022-10-16T04:39:22;101050.67;;;15.07;76.49
40692;BME280;26377;53.344;14.886;2022-10-16T04:41:50;101056.48;;;15.06;76.48
40692;BME280;26377;53.344;14.886;2022-10-16T04:44:17;101046.77;;;15.05;76.51
40692;BME280;26377;53.344;14.886;2022-10-16T04:46:50;101049.80;;;15.06;76.51
40692;BME280;26377;53.344;14.886;2022-10-16T04:49:17;101048.97;;;15.06;76.51
40692;BME280;26377;53.344;14.886;2022-10-16T04:51:45;101053.81;;;15.06;76.53
40692;BME280;26377;53.344;14.886;2022-10-16T04:54:13;101049.34;;;15.07;76.48
40692;BME280;26377;53.344;14.886;2022-10-16T04:56:42;101052.48;;;15.06;76.49
40692;BME280;26377;53.344;14.886;2022-10-16T04:59:15;101054.69;;;15.07;76.54
40692;BME280;26377;53.344;14.886;2022-10-16T05:01:43;101043.63;;;15.06;76.52
40692;BME280;26377;53.344;14.886;2022-10-16T05:04:11;101047.54;;;15.07;76.54
40692;BME280;26377;53.344;14.886;2022-10-16T05:06:38;101039.98;;;15.07;76.58
40692;BME280;26377;53.344;14.886;2022-10-16T05:09:08;101061.64;;;15.09;76.58
40692;BME280;26377;53.344;14.886;2022-10-16T05:11:35;101067.45;;;15.09;76.57
40692;BME280;26377;53.344;14.886;2022-10-16T05:14:04;101064.78;;;15.09;76.55
40692;BME280;26377;53.344;14.886;2022-10-16T05:16:31;101063.94;;;15.08;76.57
40692;BME280;26377;53.344;14.886;2022-10-16T05:19:00;101068.69;;;15.10;76.56
40692;BME280;26377;53.344;14.886;2022-10-16T05:21:31;101071.36;;;15.10;76.60
40692;BME280;26377;53.344;14.886;2022-10-16T05:23:58;101077.95;;;15.12;76.59
40692;BME280;26377;53.344;14.886;2022-10-16T05:26:25;101083.89;;;15.10;76.54
40692;BME280;26377;53.344;14.886;2022-10-16T05:28:54;101095.41;;;15.10;76.56
40692;BME280;26377;53.344;14.886;2022-10-16T05:31:21;101097.72;;;15.09;76.54
40692;BME280;26377;53.344;14.886;2022-10-16T05:33:51;101089.11;;;15.11;76.60
40692;BME280;26377;53.344;14.886;2022-10-16T05:36:22;101083.30;;;15.12;76.61
40692;BME280;26377;53.344;14.886;2022-10-16T05:38:51;101082.83;;;15.12;76.61
40692;BME280;26377;53.344;14.886;2022-10-16T05:41:20;101084.16;;;15.12;76.57
40692;BME280;26377;53.344;14.886;2022-10-16T05:43:50;101092.65;;;15.12;76.57
40692;BME280;26377;53.344;14.886;2022-10-16T05:46:19;101079.88;;;15.10;76.51
40692;BME280;26377;53.344;14.886;2022-10-16T05:48:53;101091.91;;;15.10;76.52
40692;BME280;26377;53.344;14.886;2022-10-16T05:51:22;101100.86;;;15.09;76.48
40692;BME280;26377;53.344;14.886;2022-10-16T05:53:50;101104.13;;;15.07;76.46
40692;BME280;26377;53.344;14.886;2022-10-16T05:56:21;101108.22;;;15.05;76.47
40692;BME280;26377;53.344;14.886;2022-10-16T05:58:54;101118.53;;;15.04;76.48
40692;BME280;26377;53.344;14.886;2022-10-16T06:01:23;101115.86;;;15.04;76.52
40692;BME280;26377;53.344;14.886;2022-10-16T06:03:53;101129.69;;;15.04;76.48
40692;BME280;26377;53.344;14.886;2022-10-16T06:06:28;101133.23;;;15.04;76.49
40692;BME280;26377;53.344;14.886;2022-10-16T06:08:57;101139.05;;;15.04;76.49
40692;BME280;26377;53.344;14.886;2022-10-16T06:11:28;101142.22;;;15.03;76.49
40692;BME280;26377;53.344;14.886;2022-10-16T06:13:59;101142.22;;;15.03;76.53
40692;BME280;26377;53.344;14.886;2022-10-16T06:16:37;101151.94;;;15.04;76.49
40692;BME280;26377;53.344;14.886;2022-10-16T06:19:03;101158.62;;;15.04;76.50
40692;BME280;26377;53.344;14.886;2022-10-16T06:21:33;101168.84;;;15.05;76.48
40692;BME280;26377;53.344;14.886;2022-10-16T06:24:02;101175.02;;;15.05;76.53
40692;BME280;26377;53.344;14.886;2022-10-16T06:26:31;101178.84;;;15.08;76.56
40692;BME280;26377;53.344;14.886;2022-10-16T06:28:59;101172.91;;;15.10;76.54
40692;BME280;26377;53.344;14.886;2022-10-16T06:31:29;101167.85;;;15.13;76.56
40692;BME280;26377;53.344;14.886;2022-10-16T06:34:01;101165.09;;;15.14;76.53
40692;BME280;26377;53.344;14.886;2022-10-16T06:36:29;101173.01;;;15.16;76.53
40692;BME280;26377;53.344;14.886;2022-10-16T06:39:00;101178.26;;;15.17;76.55
40692;BME280;26377;53.344;14.886;2022-10-16T06:41:31;101187.40;;;15.20;76.54
40692;BME280;26377;53.344;14.886;2022-10-16T06:44:19;101171.77;;;15.21;76.52
40692;BME280;26377;53.344;14.886;2022-10-16T06:46:48;101183.20;;;15.23;76.49
40692;BME280;26377;53.344;14.886;2022-10-16T06:49:19;101182.73;;;15.24;76.44
40692;BME280;26377;53.344;14.886;2022-10-16T06:51:49;101185.32;;;15.25;76.45
40692;BME280;26377;53.344;14.886;2022-10-16T06:54:19;101179.75;;;15.28;76.47
40692;BME280;26377;53.344;14.886;2022-10-16T06:56:47;101187.67;;;15.30;76.37
40692;BME280;26377;53.344;14.886;2022-10-16T06:59:14;101196.57;;;15.30;76.46
40692;BME280;26377;53.344;14.886;2022-10-16T07:01:45;101200.36;;;15.33;76.43
40692;BME280;26377;53.344;14.886;2022-10-16T07:04:12;101198.09;;;15.34;76.42
40692;BME280;26377;53.344;14.886;2022-10-16T07:06:41;101196.66;;;15.36;76.37
40692;BME280;26377;53.344;14.886;2022-10-16T07:09:11;101199.15;;;15.39;76.32
40692;BME280;26377;53.344;14.886;2022-10-16T07:11:40;101192.74;;;15.41;76.41
40692;BME280;26377;53.344;14.886;2022-10-16T07:14:15;101186.70;;;15.45;76.41
40692;BME280;26377;53.344;14.886;2022-10-16T07:16:47;101189.37;;;15.52;76.48
40692;BME280;26377;53.344;14.886;2022-10-16T07:19:16;101205.38;;;15.59;76.49
40692;BME280;26377;53.344;14.886;2022-10-16T07:21:44;101220.36;;;15.68;76.56
40692;BME280;26377;53.344;14.886;2022-10-16T07:24:15;101216.98;;;15.79;76.59
40692;BME280;26377;53.344;14.886;2022-10-16T07:26:46;101208.72;;;15.89;76.64
40692;BME280;26377;53.344;14.886;2022-10-16T07:29:19;101210.55;;;16.01;76.65
40692;BME280;26377;53.344;14.886;2022-10-16T07:31:49;101223.83;;;16.09;76.59
40692;BME280;26377;53.344;14.886;2022-10-16T07:34:17;101229.89;;;16.18;76.53
40692;BME280;26377;53.344;14.886;2022-10-16T07:36:49;101230.71;;;16.26;76.54
40692;BME280;26377;53.344;14.886;2022-10-16T07:39:17;101230.19;;;16.33;76.53
40692;BME280;26377;53.344;14.886;2022-10-16T07:41:44;101230.83;;;16.44;76.51
40692;BME280;26377;53.344;14.886;2022-10-16T07:44:15;101234.86;;;16.56;76.50
40692;BME280;26377;53.344;14.886;2022-10-16T07:46:43;101246.71;;;16.72;76.55
40692;BME280;26377;53.344;14.886;2022-10-16T07:49:13;101247.23;;;16.89;76.48
40692;BME280;26377;53.344;14.886;2022-10-16T07:51:42;101251.08;;;16.98;76.37
40692;BME280;26377;53.344;14.886;2022-10-16T07:54:10;101250.94;;;17.06;76.32
40692;BME280;26377;53.344;14.886;2022-10-16T07:56:38;101254.20;;;17.17;76.27
40692;BME280;26377;53.344;14.886;2022-10-16T07:59:05;101254.09;;;17.36;76.37
40692;BME280;26377;53.344;14.886;2022-10-16T08:01:34;101262.64;;;17.48;76.14
40692;BME280;26377;53.344;14.886;2022-10-16T08:04:03;101267.02;;;17.49;75.87
40692;BME280;26377;53.344;14.886;2022-10-16T08:06:34;101270.69;;;17.48;75.68
40692;BME280;26377;53.344;14.886;2022-10-16T08:09:04;101276.05;;;17.48;75.54
40692;BME280;26377;53.344;14.886;2022-10-16T08:11:32;101267.50;;;17.49;75.48
40692;BME280;26377;53.344;14.886;2022-10-16T08:14:04;101266.70;;;17.54;75.54
40692;BME280;26377;53.344;14.886;2022-10-16T08:16:31;101271.11;;;17.60;75.52
40692;BME280;26377;53.344;14.886;2022-10-16T08:18:58;101279.36;;;17.70;75.54
40692;BME280;26377;53.344;14.886;2022-10-16T08:21:32;101285.77;;;17.80;75.55
40692;BME280;26377;53.344;14.886;2022-10-16T08:24:02;101286.06;;;17.88;75.40
40692;BME280;26377;53.344;14.886;2022-10-16T08:26:30;101284.52;;;17.96;75.36
40692;BME280;26377;53.344;14.886;2022-10-16T08:29:01;101285.03;;;18.01;75.23
40692;BME280;26377;53.344;14.886;2022-10-16T08:31:31;101290.33;;;18.08;75.15
40692;BME280;26377;53.344;14.886;2022-10-16T08:34:00;101287.07;;;18.16;75.13
40692;BME280;26377;53.344;14.886;2022-10-16T08:36:29;101279.52;;;18.21;75.04
40692;BME280;26377;53.344;14.886;2022-10-16T08:38:56;101277.70;;;18.27;74.90
40692;BME280;26377;53.344;14.886;2022-10-16T08:47:35;101274.30;;;18.54;74.70
40692;BME280;26377;53.344;14.886;2022-10-16T08:50:12;101289.97;;;18.65;74.54
40692;BME280;26377;53.344;14.886;2022-10-16T08:52:41;101292.69;;;18.71;74.39
40692;BME280;26377;53.344;14.886;2022-10-16T08:55:32;101282.79;;;18.77;74.30
40692;BME280;26377;53.344;14.886;2022-10-16T08:58:15;101279.01;;;18.79;74.05
40692;BME280;26377;53.344;14.886;2022-10-16T09:00:46;101277.53;;;18.75;73.70
40692;BME280;26377;53.344;14.886;2022-10-16T09:12:27;101284.21;;;18.53;73.16
40692;BME280;26377;53.344;14.886;2022-10-16T09:23:26;101286.84;;;18.42;72.72
40692;BME280;26377;53.344;14.886;2022-10-16T09:25:57;101292.58;;;18.38;72.59
40692;BME280;26377;53.344;14.886;2022-10-16T09:28:25;101288.05;;;18.38;72.59
40692;BME280;26377;53.344;14.886;2022-10-16T09:30:54;101298.48;;;18.48;72.76
40692;BME280;26377;53.344;14.886;2022-10-16T09:33:28;101297.53;;;18.60;72.83
40692;BME280;26377;53.344;14.886;2022-10-16T09:35:57;101302.56;;;18.70;72.64
40692;BME280;26377;53.344;14.886;2022-10-16T09:38:35;101310.73;;;18.69;72.48
40692;BME280;26377;53.344;14.886;2022-10-16T09:41:18;101310.23;;;18.64;72.21
40692;BME280;26377;53.344;14.886;2022-10-16T09:46:33;101315.76;;;18.62;72.10
40692;BME280;26377;53.344;14.886;2022-10-16T09:49:19;101320.98;;;18.64;71.98
40692;BME280;26377;53.344;14.886;2022-10-16T09:51:42;101324.30;;;18.62;71.87
40692;BME280;26377;53.344;14.886;2022-10-16T09:54:16;101321.50;;;18.63;71.85
40692;BME280;26377;53.344;14.886;2022-10-16T09:56:49;101322.22;;;18.65;71.80
40692;BME280;26377;53.344;14.886;2022-10-16T09:59:20;101314.41;;;18.68;71.70
40692;BME280;26377;53.344;14.886;2022-10-16T10:01:54;101315.05;;;18.71;71.62
40692;BME280;26377;53.344;14.886;2022-10-16T10:04:25;101327.14;;;18.77;71.61
40692;BME280;26377;53.344;14.886;2022-10-16T10:06:54;101332.66;;;18.81;71.54
40692;BME280;26377;53.344;14.886;2022-10-16T10:12:01;101327.80;;;18.91;71.38
40692;BME280;26377;53.344;14.886;2022-10-16T10:14:50;101328.78;;;18.96;71.33
40692;BME280;26377;53.344;14.886;2022-10-16T10:17:26;101329.42;;;18.99;71.24
40692;BME280;26377;53.344;14.886;2022-10-16T10:20:23;101336.75;;;19.03;71.19
40692;BME280;26377;53.344;14.886;2022-10-16T10:22:42;101332.37;;;19.18;71.32
40692;BME280;26377;53.344;14.886;2022-10-16T10:28:04;101334.36;;;19.33;71.22
40692;BME280;26377;53.344;14.886;2022-10-16T10:30:48;101327.65;;;19.38;71.14
40692;BME280;26377;53.344;14.886;2022-10-16T10:36:45;101332.29;;;19.58;70.82
40692;BME280;26377;53.344;14.886;2022-10-16T10:39:22;101354.94;;;19.67;70.39
40692;BME280;26377;53.344;14.886;2022-10-16T10:50:49;101345.01;;;19.67;70.15
40692;BME280;26377;53.344;14.886;2022-10-16T10:53:44;101351.27;;;19.73;70.01
40692;BME280;26377;53.344;14.886;2022-10-16T11:16:23;101348.91;;;19.85;69.22
40692;BME280;26377;53.344;14.886;2022-10-16T11:19:33;101351.13;;;19.91;69.14
40692;BME280;26377;53.344;14.886;2022-10-16T11:33:41;101366.51;;;20.00;68.62
40692;BME280;26377;53.344;14.886;2022-10-16T11:41:50;101357.08;;;20.00;68.28
40692;BME280;26377;53.344;14.886;2022-10-16T11:44:48;101359.92;;;19.99;68.21
40692;BME280;26377;53.344;14.886;2022-10-16T11:47:42;101356.61;;;20.01;68.16
40692;BME280;26377;53.344;14.886;2022-10-16T11:50:28;101355.89;;;19.99;68.06
40692;BME280;26377;53.344;14.886;2022-10-16T11:55:40;101367.62;;;19.98;67.97
40692;BME280;26377;53.344;14.886;2022-10-16T11:58:32;101365.44;;;20.03;68.10
40692;BME280;26377;53.344;14.886;2022-10-16T12:01:18;101366.78;;;20.14;68.16
40692;BME280;26377;53.344;14.886;2022-10-16T12:04:01;101364.44;;;20.20;68.12
40692;BME280;26377;53.344;14.886;2022-10-16T12:07:10;101362.34;;;20.29;68.01
40692;BME280;26377;53.344;14.886;2022-10-16T12:09:40;101359.52;;;20.31;67.90
40692;BME280;26377;53.344;14.886;2022-10-16T12:12:25;101362.29;;;20.40;67.95
40692;BME280;26377;53.344;14.886;2022-10-16T12:17:50;101358.94;;;20.53;67.98
40692;BME280;26377;53.344;14.886;2022-10-16T12:20:29;101357.28;;;20.67;67.83
40692;BME280;26377;53.344;14.886;2022-10-16T12:23:01;101361.42;;;20.77;67.82
40692;BME280;26377;53.344;14.886;2022-10-16T12:25:35;101364.30;;;20.96;67.94
40692;BME280;26377;53.344;14.886;2022-10-16T12:28:20;101363.66;;;21.18;67.68
40692;BME280;26377;53.344;14.886;2022-10-16T12:30:56;101362.92;;;21.37;67.70
40692;BME280;26377;53.344;14.886;2022-10-16T12:36:02;101368.45;;;21.65;67.28
40692;BME280;26377;53.344;14.886;2022-10-16T12:38:48;101366.19;;;21.76;67.15
40692;BME280;26377;53.344;14.886;2022-10-16T12:41:29;101368.38;;;21.91;66.93
40692;BME280;26377;53.344;14.886;2022-10-16T12:43:58;101370.59;;;21.92;66.54
40692;BME280;26377;53.344;14.886;2022-10-16T12:51:51;101365.90;;;22.18;66.32
40692;BME280;26377;53.344;14.886;2022-10-16T12:54:29;101363.33;;;22.26;65.93
40692;BME280;26377;53.344;14.886;2022-10-16T13:00:07;101378.45;;;22.38;65.65
40692;BME280;26377;53.344;14.886;2022-10-16T13:05:40;101381.42;;;22.51;65.10
40692;BME280;26377;53.344;14.886;2022-10-16T13:14:33;101396.86;;;22.54;64.28
40692;BME280;26377;53.344;14.886;2022-10-16T13:26:09;101409.39;;;22.46;63.57
40692;BME280;26377;53.344;14.886;2022-10-16T13:28:46;101409.82;;;22.51;63.45
40692;BME280;26377;53.344;14.886;2022-10-16T13:31:17;101410.32;;;22.35;63.05
40692;BME280;26377;53.344;14.886;2022-10-16T13:33:49;101423.79;;;22.16;62.76
40692;BME280;26377;53.344;14.886;2022-10-16T13:36:24;101427.62;;;21.98;62.68
40692;BME280;26377;53.344;14.886;2022-10-16T13:41:41;101441.66;;;22.07;62.80
40692;BME280;26377;53.344;14.886;2022-10-16T13:44:16;101444.41;;;22.17;62.68
40692;BME280;26377;53.344;14.886;2022-10-16T13:46:43;101432.91;;;22.24;62.69
40692;BME280;26377;53.344;14.886;2022-10-16T13:49:15;101436.83;;;22.26;62.37
40692;BME280;26377;53.344;14.886;2022-10-16T13:51:58;101445.08;;;22.24;62.31
40692;BME280;26377;53.344;14.886;2022-10-16T13:54:28;101439.31;;;22.23;62.15
40692;BME280;26377;53.344;14.886;2022-10-16T13:56:55;101449.95;;;22.15;61.88
40692;BME280;26377;53.344;14.886;2022-10-16T13:59:26;101450.86;;;22.10;61.67
40692;BME280;26377;53.344;14.886;2022-10-16T14:01:57;101453.02;;;22.01;61.48
40692;BME280;26377;53.344;14.886;2022-10-16T14:04:31;101445.47;;;21.95;61.33
40692;BME280;26377;53.344;14.886;2022-10-16T14:07:00;101448.98;;;21.86;61.12
40692;BME280;26377;53.344;14.886;2022-10-16T14:09:29;101453.94;;;21.81;60.97
40692;BME280;26377;53.344;14.886;2022-10-16T14:12:01;101455.32;;;21.76;60.76
40692;BME280;26377;53.344;14.886;2022-10-16T14:14:42;101461.62;;;21.65;60.68
40692;BME280;26377;53.344;14.886;2022-10-16T14:17:19;101460.70;;;21.55;60.53
40692;BME280;26377;53.344;14.886;2022-10-16T14:19:59;101462.72;;;21.48;60.38
40692;BME280;26377;53.344;14.886;2022-10-16T14:22:39;101467.69;;;21.37;60.30
40692;BME280;26377;53.344;14.886;2022-10-16T14:27:59;101472.57;;;21.23;60.09
40692;BME280;26377;53.344;14.886;2022-10-16T14:30:35;101475.66;;;21.13;60.02
40692;BME280;26377;53.344;14.886;2022-10-16T14:33:20;101471.42;;;21.05;59.97
40692;BME280;26377;53.344;14.886;2022-10-16T14:38:43;101474.42;;;20.91;59.84
40692;BME280;26377;53.344;14.886;2022-10-16T14:41:15;101473.30;;;20.82;59.84
40692;BME280;26377;53.344;14.886;2022-10-16T14:43:43;101481.31;;;20.73;59.76
40692;BME280;26377;53.344;14.886;2022-10-16T14:46:13;101483.06;;;20.63;59.77
40692;BME280;26377;53.344;14.886;2022-10-16T14:48:51;101485.02;;;20.55;59.80
40692;BME280;26377;53.344;14.886;2022-10-16T14:51:27;101495.70;;;20.46;59.76
40692;BME280;26377;53.344;14.886;2022-10-16T14:53:56;101486.27;;;20.35;59.75
40692;BME280;26377;53.344;14.886;2022-10-16T14:56:25;101489.23;;;20.26;59.80
40692;BME280;26377;53.344;14.886;2022-10-16T14:58:57;101492.30;;;20.16;59.82
40692;BME280;26377;53.344;14.886;2022-10-16T15:01:24;101492.55;;;20.08;59.89
40692;BME280;26377;53.344;14.886;2022-10-16T15:03:52;101500.83;;;19.99;59.96
40692;BME280;26377;53.344;14.886;2022-10-16T15:06:23;101499.59;;;19.87;59.96
40692;BME280;26377;53.344;14.886;2022-10-16T15:08:51;101505.81;;;19.76;60.04
40692;BME280;26377;53.344;14.886;2022-10-16T15:11:19;101506.69;;;19.66;60.16
40692;BME280;26377;53.344;14.886;2022-10-16T15:13:47;101513.36;;;19.55;60.21
40692;BME280;26377;53.344;14.886;2022-10-16T15:16:15;101516.52;;;19.43;60.30
40692;BME280;26377;53.344;14.886;2022-10-16T15:18:45;101520.64;;;19.31;60.33
40692;BME280;26377;53.344;14.886;2022-10-16T15:23:59;101526.64;;;19.11;60.55
40692;BME280;26377;53.344;14.886;2022-10-16T15:26:29;101521.80;;;18.98;60.67
40692;BME280;26377;53.344;14.886;2022-10-16T15:28:57;101526.62;;;18.87;60.74